createdAt,value
2023-05-05T00:01:06.200Z,3.90
2023-05-05T00:03:34.357Z,3.70
2023-05-05T00:06:01.070Z,3.87
2023-05-05T00:08:28.493Z,4.07
2023-05-05T00:10:55.924Z,3.83
2023-05-05T00:13:22.896Z,3.47
2023-05-05T00:15:51.764Z,3.77
2023-05-05T00:18:19.268Z,4.07
2023-05-05T00:20:47.314Z,3.97
2023-05-05T00:23:16.780Z,3.90
2023-05-05T00:25:43.257Z,4.00
2023-05-05T00:28:09.988Z,4.27
2023-05-05T00:30:37.476Z,4.40
2023-05-05T00:33:04.134Z,4.17
2023-05-05T00:35:31.114Z,3.83
2023-05-05T00:37:58.147Z,3.63
2023-05-05T00:40:25.240Z,3.73
2023-05-05T00:42:52.347Z,4.20
2023-05-05T00:45:20.110Z,4.30
2023-05-05T00:47:49.574Z,3.37
2023-05-05T00:50:27.466Z,3.50
2023-05-05T00:52:57.364Z,3.80
2023-05-05T00:55:23.932Z,3.60
2023-05-05T00:57:50.874Z,3.67
2023-05-05T01:00:17.885Z,3.60
2023-05-05T01:02:44.740Z,3.33
2023-05-05T01:05:13.687Z,3.77
2023-05-05T01:07:43.370Z,3.47
2023-05-05T01:10:30.151Z,3.90
2023-05-05T01:13:11.388Z,3.63
2023-05-05T01:15:46.505Z,3.93
2023-05-05T01:18:37.514Z,4.10
2023-05-05T01:21:13.631Z,3.20
2023-05-05T01:24:01.697Z,4.07
2023-05-05T01:26:59.715Z,3.77
2023-05-05T01:30:02.106Z,3.40
2023-05-05T01:32:33.954Z,3.63
2023-05-05T01:35:04.340Z,4.17
2023-05-05T01:37:43.387Z,3.47
2023-05-05T01:40:12.397Z,3.80
2023-05-05T01:42:43.435Z,3.67
2023-05-05T01:45:12.778Z,3.77
2023-05-05T01:47:40.899Z,3.80
2023-05-05T01:50:09.484Z,4.30
2023-05-05T01:52:37.977Z,4.20
2023-05-05T01:55:07.163Z,3.90
2023-05-05T01:57:34.473Z,3.83
2023-05-05T02:00:06.136Z,3.60
2023-05-05T02:02:34.926Z,3.70
2023-05-05T02:05:03.536Z,4.00
2023-05-05T02:07:32.504Z,3.87
2023-05-05T02:10:01.063Z,4.10
2023-05-05T02:12:29.891Z,4.03
2023-05-05T02:15:00.053Z,4.50
2023-05-05T02:17:27.593Z,3.87
2023-05-05T02:19:55.791Z,3.90
2023-05-05T02:22:22.352Z,4.23
2023-05-05T02:24:48.827Z,3.80
2023-05-05T02:27:18.866Z,3.90
2023-05-05T02:29:52.082Z,4.30
2023-05-05T02:32:23.076Z,3.53
2023-05-05T02:34:53.045Z,3.17
2023-05-05T02:37:27.247Z,3.90
2023-05-05T02:40:06.070Z,4.33
2023-05-05T02:42:37.113Z,3.70
2023-05-05T02:45:16.322Z,3.90
2023-05-05T02:47:43.051Z,3.83
2023-05-05T02:50:10.303Z,3.90
2023-05-05T02:52:37.352Z,3.70
2023-05-05T02:55:05.633Z,3.93
2023-05-05T02:57:41.289Z,3.70
2023-05-05T03:00:18.959Z,3.83
2023-05-05T03:03:20.955Z,4.03
2023-05-05T03:06:00.539Z,4.03
2023-05-05T03:08:33.343Z,3.73
2023-05-05T03:11:06.488Z,3.90
2023-05-05T03:13:36.831Z,4.30
2023-05-05T03:16:06.840Z,3.93
2023-05-05T03:18:40.148Z,3.20
2023-05-05T03:21:10.080Z,4.27
2023-05-05T03:23:36.735Z,4.20
2023-05-05T03:26:03.190Z,3.80
2023-05-05T03:28:29.602Z,4.20
2023-05-05T03:30:56.336Z,3.80
2023-05-05T03:33:22.731Z,3.97
2023-05-05T03:35:49.178Z,3.97
2023-05-05T03:38:15.672Z,4.07
2023-05-05T03:40:44.658Z,4.47
2023-05-05T03:43:11.678Z,4.37
2023-05-05T03:45:38.166Z,4.30
2023-05-05T03:48:05.074Z,4.07
2023-05-05T03:50:31.595Z,4.23
2023-05-05T03:52:58.004Z,4.33
2023-05-05T03:55:24.565Z,4.27
2023-05-05T03:57:50.980Z,4.40
2023-05-05T04:00:17.691Z,4.57
2023-05-05T04:02:44.185Z,3.70
2023-05-05T04:05:10.814Z,4.00
2023-05-05T04:07:37.211Z,4.50
2023-05-05T04:10:03.787Z,4.37
2023-05-05T04:12:30.344Z,4.47
2023-05-05T04:14:56.840Z,4.10
2023-05-05T04:17:23.452Z,4.70
2023-05-05T04:19:49.897Z,4.07
2023-05-05T04:22:16.448Z,4.93
2023-05-05T04:24:42.891Z,4.40
2023-05-05T04:27:09.312Z,4.60
2023-05-05T04:29:36.074Z,4.67
2023-05-05T04:32:02.503Z,4.13
2023-05-05T04:34:29.031Z,4.53
2023-05-05T04:36:55.438Z,4.53
2023-05-05T04:39:21.854Z,4.70
2023-05-05T04:41:48.334Z,4.10
2023-05-05T04:44:15.377Z,4.37
2023-05-05T04:46:41.971Z,4.50
2023-05-05T04:49:09.204Z,4.47
2023-05-05T04:51:35.644Z,4.07
2023-05-05T04:54:02.123Z,3.90
2023-05-05T04:56:31.265Z,3.80
2023-05-05T04:58:57.697Z,4.90
2023-05-05T05:01:24.131Z,4.57
2023-05-05T05:03:51.145Z,4.23
2023-05-05T05:06:17.600Z,4.30
2023-05-05T05:08:43.974Z,4.10
2023-05-05T05:11:10.550Z,4.33
2023-05-05T05:13:36.932Z,4.37
2023-05-05T05:16:03.634Z,4.50
2023-05-05T05:18:30.041Z,4.47
2023-05-05T05:20:56.550Z,4.30
2023-05-05T05:23:23.041Z,4.23
2023-05-05T05:25:49.607Z,4.13
2023-05-05T05:28:15.970Z,4.63
2023-05-05T05:30:42.393Z,4.60
2023-05-05T05:33:08.878Z,4.80
2023-05-05T05:35:35.442Z,4.43
2023-05-05T05:38:01.959Z,5.03
2023-05-05T05:40:28.438Z,5.00
2023-05-05T05:42:54.889Z,5.00
2023-05-05T05:45:21.731Z,5.00
2023-05-05T05:47:48.336Z,4.80
2023-05-05T05:50:14.897Z,5.23
2023-05-05T05:52:41.315Z,4.83
2023-05-05T05:55:09.881Z,5.20
2023-05-05T05:57:36.319Z,4.43
2023-05-05T06:00:04.486Z,4.67
2023-05-05T06:02:31.008Z,4.40
2023-05-05T06:04:57.439Z,4.40
2023-05-05T06:07:23.919Z,4.77
2023-05-05T06:09:50.537Z,4.33
2023-05-05T06:12:19.033Z,4.57
2023-05-05T06:14:45.681Z,5.00
2023-05-05T06:17:12.050Z,4.10
2023-05-05T06:19:40.960Z,4.70
2023-05-05T06:22:07.407Z,4.50
2023-05-05T06:24:33.954Z,4.40
2023-05-05T06:27:00.488Z,4.37
2023-05-05T06:29:27.158Z,4.83
2023-05-05T06:31:53.689Z,5.47
2023-05-05T06:34:21.924Z,4.70
2023-05-05T06:36:48.355Z,4.93
2023-05-05T06:39:16.130Z,4.50
2023-05-05T06:41:42.766Z,4.43
2023-05-05T06:44:10.607Z,4.47
2023-05-05T06:46:37.337Z,4.13
2023-05-05T06:49:03.804Z,4.70
2023-05-05T06:51:31.268Z,5.00
2023-05-05T06:53:57.668Z,4.37
2023-05-05T06:56:24.062Z,4.63
2023-05-05T06:58:50.498Z,4.03
2023-05-05T07:01:18.961Z,4.43
2023-05-05T07:03:45.661Z,4.20
2023-05-05T07:06:12.381Z,3.60
2023-05-05T07:08:38.794Z,3.80
2023-05-05T07:11:05.186Z,4.60
2023-05-05T07:13:31.773Z,3.70
2023-05-05T07:15:59.909Z,2.70
2023-05-05T07:18:26.340Z,2.43
2023-05-05T07:20:52.833Z,2.83
2023-05-05T07:23:19.183Z,2.57
2023-05-05T07:25:46.113Z,2.67
2023-05-05T07:28:12.731Z,2.60
2023-05-05T07:30:41.954Z,2.67
2023-05-05T07:33:08.463Z,2.20
2023-05-05T07:35:34.983Z,2.60
2023-05-05T07:38:01.742Z,2.80
2023-05-05T07:40:28.144Z,2.63
2023-05-05T07:42:54.510Z,3.00
2023-05-05T07:45:21.215Z,2.60
2023-05-05T07:47:47.705Z,2.80
2023-05-05T07:50:14.204Z,3.00
2023-05-05T07:55:10.364Z,3.03
2023-05-05T07:57:36.972Z,3.07
2023-05-05T08:00:03.878Z,3.00
2023-05-05T08:02:30.406Z,2.70
2023-05-05T08:04:56.955Z,3.10
2023-05-05T08:07:23.450Z,2.87
2023-05-05T08:09:49.933Z,2.70
2023-05-05T08:12:19.029Z,2.83
2023-05-05T08:14:45.550Z,3.27
2023-05-05T08:17:14.727Z,2.73
2023-05-05T08:19:41.110Z,2.60
2023-05-05T08:22:07.560Z,2.90
2023-05-05T08:24:34.053Z,2.80
2023-05-05T08:27:01.980Z,2.50
2023-05-05T08:29:28.419Z,2.77
2023-05-05T08:31:55.272Z,2.50
2023-05-05T08:34:22.993Z,2.40
2023-05-05T08:36:50.865Z,3.10
2023-05-05T08:39:18.091Z,3.20
2023-05-05T08:41:44.716Z,2.63
2023-05-05T08:44:11.750Z,3.00
2023-05-05T08:46:39.020Z,3.17
2023-05-05T08:49:09.494Z,3.30
2023-05-05T08:51:43.670Z,3.40
2023-05-05T08:54:19.575Z,3.00
2023-05-05T08:56:49.586Z,2.93
2023-05-05T08:59:17.432Z,3.70
2023-05-05T09:01:44.991Z,2.40
2023-05-05T09:04:11.543Z,2.40
2023-05-05T09:06:38.269Z,2.10
2023-05-05T09:09:04.717Z,2.07
2023-05-05T09:11:34.245Z,1.80
2023-05-05T09:14:01.885Z,1.57
2023-05-05T09:16:28.473Z,2.00
2023-05-05T09:19:04.821Z,2.17
2023-05-05T09:21:32.378Z,2.10
2023-05-05T09:24:08.484Z,1.90
2023-05-05T09:26:41.674Z,1.67
2023-05-05T09:29:08.882Z,1.90
2023-05-05T09:31:36.680Z,2.10
2023-05-05T09:34:14.747Z,2.50
2023-05-05T09:36:43.187Z,2.30
2023-05-05T09:39:10.109Z,2.03
2023-05-05T09:41:42.045Z,2.00
2023-05-05T09:44:09.883Z,2.03
2023-05-05T09:46:37.005Z,2.47
2023-05-05T09:49:18.273Z,2.20
2023-05-05T09:51:48.954Z,2.20
2023-05-05T09:54:32.716Z,2.17
2023-05-05T09:56:59.229Z,2.23
2023-05-05T09:59:25.993Z,2.53
2023-05-05T10:01:52.495Z,2.20
2023-05-05T10:04:25.780Z,2.00
2023-05-05T10:06:52.474Z,1.70
2023-05-05T10:09:20.054Z,2.70
2023-05-05T10:11:47.479Z,1.87
2023-05-05T10:14:15.930Z,2.13
2023-05-05T10:16:53.424Z,1.80
2023-05-05T10:19:22.730Z,1.93
2023-05-05T10:21:53.123Z,1.93
2023-05-05T10:24:42.845Z,2.27
2023-05-05T10:27:17.205Z,1.90
2023-05-05T10:29:52.908Z,1.50
2023-05-05T10:35:23.419Z,1.97
2023-05-05T10:37:50.647Z,1.60
2023-05-05T10:40:21.062Z,1.30
2023-05-05T10:42:49.997Z,1.77
2023-05-05T10:45:16.596Z,1.77
2023-05-05T10:47:44.540Z,1.70
2023-05-05T10:50:20.075Z,1.93
2023-05-05T10:53:07.637Z,2.07
2023-05-05T10:55:44.294Z,1.70
2023-05-05T10:58:51.130Z,1.70
2023-05-05T11:01:36.033Z,1.87
2023-05-05T11:04:23.051Z,1.83
2023-05-05T11:07:09.248Z,1.80
2023-05-05T11:09:55.131Z,2.07
2023-05-05T11:12:21.717Z,1.93
2023-05-05T11:14:48.184Z,1.67
2023-05-05T11:17:56.790Z,2.00
2023-05-05T11:21:15.283Z,1.87
2023-05-05T11:23:46.522Z,1.83
2023-05-05T11:26:14.059Z,1.77
2023-05-05T11:29:02.003Z,1.77
2023-05-05T11:31:30.464Z,1.70
2023-05-05T11:34:29.103Z,1.70
2023-05-05T11:37:03.288Z,1.63
2023-05-05T11:39:53.301Z,1.83
2023-05-05T11:42:27.099Z,1.70
2023-05-05T11:44:54.095Z,1.90
2023-05-05T11:47:20.593Z,1.67
2023-05-05T11:49:47.236Z,2.03
2023-05-05T11:52:14.883Z,1.53
2023-05-05T11:54:49.003Z,2.30
2023-05-05T11:57:17.672Z,1.83
2023-05-05T12:00:05.209Z,2.40
2023-05-05T12:02:31.975Z,1.43
2023-05-05T12:05:00.530Z,1.53
2023-05-05T12:07:32.210Z,1.50
2023-05-05T12:09:59.494Z,1.70
2023-05-05T12:12:40.217Z,1.50
2023-05-05T12:15:11.068Z,1.40
2023-05-05T12:17:42.877Z,1.60
2023-05-05T12:20:11.163Z,1.20
2023-05-05T12:22:38.346Z,1.03
2023-05-05T12:25:07.740Z,1.30
2023-05-05T12:27:35.643Z,1.53
2023-05-05T12:30:18.244Z,1.27
2023-05-05T12:32:45.755Z,1.20
2023-05-05T12:35:13.747Z,1.40
2023-05-05T12:37:41.551Z,1.10
2023-05-05T12:40:30.130Z,1.10
2023-05-05T12:42:56.532Z,1.57
2023-05-05T12:45:22.981Z,1.10
2023-05-05T12:47:49.421Z,1.17
2023-05-05T12:50:29.762Z,1.87
2023-05-05T12:52:56.229Z,1.80
2023-05-05T12:55:36.126Z,1.83
2023-05-05T12:58:04.392Z,1.77
2023-05-05T13:00:30.933Z,1.77
2023-05-05T13:02:58.020Z,1.70
2023-05-05T13:05:38.092Z,1.87
2023-05-05T13:08:04.730Z,1.67
2023-05-05T13:10:31.284Z,1.80
2023-05-05T13:12:58.558Z,1.50
2023-05-05T13:15:25.887Z,1.20
2023-05-05T13:17:59.393Z,1.90
2023-05-05T13:20:26.037Z,1.57
2023-05-05T13:22:52.549Z,2.30
2023-05-05T13:25:20.087Z,1.80
2023-05-05T13:27:46.645Z,1.83
2023-05-05T13:30:13.802Z,1.40
2023-05-05T13:32:40.346Z,1.67
2023-05-05T13:35:07.726Z,1.90
2023-05-05T13:37:34.378Z,1.40
2023-05-05T13:40:01.270Z,1.40
2023-05-05T13:42:27.703Z,1.70
2023-05-05T13:44:54.151Z,1.80
2023-05-05T13:47:20.774Z,1.17
2023-05-05T13:49:47.352Z,1.40
2023-05-05T13:52:13.836Z,1.60
2023-05-05T13:54:40.387Z,1.10
2023-05-05T13:57:07.946Z,1.40
2023-05-05T13:59:34.433Z,1.20
2023-05-05T14:02:01.822Z,1.57
2023-05-05T14:04:28.358Z,1.60
2023-05-05T14:06:54.823Z,1.20
2023-05-05T14:09:21.402Z,1.23
2023-05-05T14:11:47.770Z,1.50
2023-05-05T14:14:14.189Z,1.27
2023-05-05T14:16:40.652Z,1.17
2023-05-05T14:19:07.096Z,1.20
2023-05-05T14:21:33.590Z,1.83
2023-05-05T14:24:00.098Z,1.10
2023-05-05T14:26:27.213Z,1.63
2023-05-05T14:28:53.723Z,0.90
2023-05-05T14:31:20.256Z,0.83
2023-05-05T14:33:46.714Z,1.20
2023-05-05T14:36:14.178Z,1.20
2023-05-05T14:38:41.997Z,0.90
2023-05-05T14:41:08.587Z,1.10
2023-05-05T14:43:36.689Z,1.03
2023-05-05T14:46:08.341Z,0.80
2023-05-05T14:48:35.098Z,0.80
2023-05-05T14:51:02.043Z,1.20
2023-05-05T14:53:28.508Z,1.67
2023-05-05T14:55:55.906Z,1.23
2023-05-05T14:58:24.449Z,1.10
2023-05-05T15:00:52.774Z,0.60
2023-05-05T15:03:19.275Z,0.80
2023-05-05T15:05:45.806Z,1.20
2023-05-05T15:08:12.505Z,0.70
2023-05-05T15:10:39.092Z,0.60
2023-05-05T15:13:05.810Z,1.20
2023-05-05T15:15:32.275Z,1.23
2023-05-05T15:17:58.972Z,1.00
2023-05-05T15:20:25.517Z,1.10
2023-05-05T15:22:51.994Z,1.17
2023-05-05T15:25:19.303Z,1.40
2023-05-05T15:27:45.887Z,0.87
2023-05-05T15:30:14.027Z,0.80
2023-05-05T15:32:41.617Z,0.80
2023-05-05T15:35:09.014Z,1.10
2023-05-05T15:37:36.428Z,1.60
2023-05-05T15:40:03.173Z,1.83
2023-05-05T15:42:32.338Z,1.40
2023-05-05T15:45:00.193Z,1.20
2023-05-05T15:47:26.931Z,0.80
2023-05-05T15:49:53.360Z,0.97
2023-05-05T15:52:20.103Z,1.10
2023-05-05T15:54:46.591Z,0.90
2023-05-05T15:57:13.114Z,0.90
2023-05-05T15:59:39.819Z,0.97
2023-05-05T16:02:06.922Z,1.17
2023-05-05T16:04:33.606Z,0.90
2023-05-05T16:07:00.225Z,1.03
2023-05-05T16:09:26.671Z,1.20
2023-05-05T16:11:54.131Z,1.30
2023-05-05T16:14:22.182Z,1.20
2023-05-05T16:16:48.911Z,1.20
2023-05-05T16:19:15.904Z,0.90
2023-05-05T16:21:42.347Z,1.43
2023-05-05T16:24:10.228Z,1.00
2023-05-05T16:26:36.900Z,1.10
2023-05-05T16:29:03.331Z,1.80
2023-05-05T16:31:29.820Z,1.63
2023-05-05T16:33:56.266Z,1.07
2023-05-05T16:36:22.850Z,1.53
2023-05-05T16:38:49.675Z,1.60
2023-05-05T16:41:16.310Z,1.50
2023-05-05T16:43:42.858Z,1.30
2023-05-05T16:46:09.284Z,1.30
2023-05-05T16:48:35.756Z,1.50
2023-05-05T16:51:03.182Z,1.20
2023-05-05T16:53:29.751Z,0.90
2023-05-05T16:55:56.289Z,1.20
2023-05-05T16:58:23.296Z,1.50
2023-05-05T17:00:50.815Z,1.93
2023-05-05T17:03:20.936Z,1.20
2023-05-05T17:05:49.980Z,0.90
2023-05-05T17:08:17.112Z,1.00
2023-05-05T17:10:45.302Z,0.70
2023-05-05T17:13:13.391Z,0.80
2023-05-05T17:15:40.945Z,0.97
2023-05-05T17:18:08.118Z,0.60
2023-05-05T17:20:35.328Z,0.60
2023-05-05T17:23:02.126Z,0.80
2023-05-05T17:25:28.701Z,0.83
2023-05-05T17:27:56.062Z,1.03
2023-05-05T17:30:24.288Z,0.53
2023-05-05T17:32:52.355Z,0.60
2023-05-05T17:35:18.865Z,0.80
2023-05-05T17:37:45.571Z,0.57
2023-05-05T17:40:12.276Z,0.70
2023-05-05T17:42:39.075Z,0.60
2023-05-05T17:45:06.511Z,0.70
2023-05-05T17:47:33.199Z,0.60
2023-05-05T17:50:00.065Z,0.50
2023-05-05T17:52:27.025Z,0.70
2023-05-05T17:54:53.405Z,0.90
2023-05-05T17:57:21.269Z,0.67
2023-05-05T17:59:49.696Z,0.83
2023-05-05T18:02:16.795Z,0.93
2023-05-05T18:04:43.388Z,0.80
2023-05-05T18:07:11.973Z,0.80
2023-05-05T18:09:39.075Z,0.93
2023-05-05T18:12:05.735Z,0.50
2023-05-05T18:14:32.181Z,0.70
2023-05-05T18:17:00.342Z,0.50
2023-05-05T18:19:26.787Z,0.67
2023-05-05T18:21:57.423Z,0.50
2023-05-05T18:24:23.881Z,0.60
2023-05-05T18:26:52.428Z,0.50
2023-05-05T18:29:21.452Z,0.40
2023-05-05T18:31:52.919Z,0.77
2023-05-05T18:34:20.480Z,0.67
2023-05-05T18:36:47.740Z,0.70
2023-05-05T18:39:14.589Z,1.53
2023-05-05T18:41:41.273Z,1.00
2023-05-05T18:44:08.062Z,0.90
2023-05-05T18:46:35.778Z,0.73
2023-05-05T18:49:02.841Z,0.90
2023-05-05T18:51:29.407Z,0.70
2023-05-05T18:53:57.318Z,0.70
2023-05-05T18:56:23.773Z,0.80
2023-05-05T18:58:50.263Z,1.17
2023-05-05T19:01:17.049Z,0.60
2023-05-05T19:03:50.659Z,1.10
2023-05-05T19:06:17.680Z,1.00
2023-05-05T19:08:45.572Z,0.90
2023-05-05T19:11:12.465Z,0.97
2023-05-05T19:16:05.954Z,1.10
2023-05-05T19:18:32.553Z,1.10
2023-05-05T19:20:59.009Z,1.10
2023-05-05T19:23:25.670Z,1.20
2023-05-05T19:25:54.943Z,0.80
2023-05-05T19:28:21.711Z,1.10
2023-05-05T19:30:48.734Z,1.43
2023-05-05T19:33:16.662Z,1.03
2023-05-05T19:35:44.260Z,1.03
2023-05-05T19:38:10.979Z,1.40
2023-05-05T19:40:38.682Z,0.87
2023-05-05T19:43:05.399Z,1.00
2023-05-05T19:45:33.237Z,1.00
2023-05-05T19:48:00.845Z,1.40
2023-05-05T19:50:29.799Z,1.40
2023-05-05T19:52:56.776Z,1.57
2023-05-05T19:55:23.340Z,1.77
2023-05-05T19:57:50.056Z,1.67
2023-05-05T20:00:17.309Z,1.47
2023-05-05T20:02:46.414Z,1.17
2023-05-05T20:05:14.835Z,1.60
2023-05-05T20:07:45.946Z,1.73
2023-05-05T20:10:13.300Z,1.40
2023-05-05T20:12:42.364Z,1.33
2023-05-05T20:15:10.399Z,1.13
2023-05-05T20:17:36.956Z,3.77
2023-05-05T20:20:03.620Z,1.60
2023-05-05T20:22:30.885Z,1.60
2023-05-05T20:24:58.843Z,1.30
2023-05-05T20:27:26.683Z,2.00
2023-05-05T20:29:54.525Z,1.40
2023-05-05T20:32:21.070Z,1.30
2023-05-05T20:34:48.207Z,1.47
2023-05-05T20:37:14.775Z,3.50
2023-05-05T20:39:42.370Z,2.00
2023-05-05T20:42:08.836Z,1.43
2023-05-05T20:44:35.362Z,2.50
2023-05-05T20:47:02.189Z,2.70
2023-05-05T20:49:30.394Z,2.00
2023-05-05T20:51:58.310Z,1.30
2023-05-05T20:54:24.736Z,2.30
2023-05-05T20:56:53.013Z,2.83
2023-05-05T20:59:19.386Z,2.03
2023-05-05T21:01:45.945Z,2.23
2023-05-05T21:04:12.436Z,2.43
2023-05-05T21:06:38.910Z,2.20
2023-05-05T21:09:05.671Z,2.20
2023-05-05T21:11:32.085Z,1.63
2023-05-05T21:13:58.558Z,1.93
2023-05-05T21:16:25.199Z,1.67
2023-05-05T21:18:51.657Z,2.50
2023-05-05T21:21:18.195Z,2.10
2023-05-05T21:23:47.041Z,2.00
2023-05-05T21:26:13.806Z,1.60
2023-05-05T21:28:40.398Z,1.90
2023-05-05T21:31:21.180Z,1.57
2023-05-05T21:33:48.839Z,1.57
2023-05-05T21:36:17.356Z,1.80
2023-05-05T21:38:43.816Z,2.03
2023-05-05T21:41:10.296Z,1.57
2023-05-05T21:43:36.835Z,1.43
2023-05-05T21:46:05.070Z,1.90
2023-05-05T21:48:31.918Z,1.50
2023-05-05T21:50:58.415Z,2.10
2023-05-05T21:53:24.995Z,1.83
2023-05-05T21:55:51.641Z,1.97
2023-05-05T21:58:18.118Z,2.10
2023-05-05T22:00:45.004Z,2.30
2023-05-05T22:03:13.684Z,2.47
2023-05-05T22:05:41.421Z,1.70
2023-05-05T22:08:07.869Z,1.93
2023-05-05T22:10:34.298Z,1.80
2023-05-05T22:13:00.807Z,2.53
2023-05-05T22:15:32.608Z,1.90
2023-05-05T22:18:02.526Z,1.77
2023-05-05T22:20:29.725Z,1.67
2023-05-05T22:22:56.555Z,1.80
2023-05-05T22:25:23.209Z,2.00
2023-05-05T22:27:49.739Z,2.37
2023-05-05T22:30:16.165Z,2.03
2023-05-05T22:32:43.420Z,1.97
2023-05-05T22:35:10.461Z,2.43
2023-05-05T22:37:37.117Z,2.13
2023-05-05T22:40:03.994Z,1.97
2023-05-05T22:42:30.946Z,2.30
2023-05-05T22:44:57.481Z,2.67
2023-05-05T22:47:24.006Z,2.40
2023-05-05T22:49:50.515Z,2.43
2023-05-05T22:52:17.943Z,2.73
2023-05-05T22:54:44.409Z,2.37
2023-05-05T22:57:10.872Z,2.00
2023-05-05T22:59:37.460Z,1.83
2023-05-05T23:02:03.901Z,2.23
2023-05-05T23:04:30.371Z,1.83
2023-05-05T23:06:56.784Z,2.13
2023-05-05T23:09:23.269Z,2.67
2023-05-05T23:11:49.624Z,1.53
2023-05-05T23:14:16.872Z,1.90
2023-05-05T23:16:43.397Z,1.37
2023-05-05T23:19:09.860Z,1.33
2023-05-05T23:21:45.470Z,1.63
2023-05-05T23:24:19.039Z,1.60
2023-05-05T23:26:45.526Z,1.33
2023-05-05T23:29:12.009Z,1.70
2023-05-05T23:31:38.434Z,1.70
2023-05-05T23:34:04.823Z,1.60
2023-05-05T23:36:31.559Z,2.20
2023-05-05T23:38:57.973Z,1.97
2023-05-05T23:41:24.383Z,2.20
2023-05-05T23:43:51.001Z,2.10
2023-05-05T23:46:17.430Z,2.37
2023-05-05T23:48:43.850Z,2.33
2023-05-05T23:51:10.374Z,2.20
2023-05-05T23:53:37.059Z,2.27
2023-05-05T23:56:03.539Z,2.03
2023-05-05T23:58:30.165Z,1.30
